Hauptseite
METAR-TAF:

METAR-TAF

Flughäfen :

Goeree Le, Niederlande

Bohrplattform

Breite: 51-55-33N, Länge: 3-40-12E, Höhe: 19 m

Beobachtung

Neuester Wetterbericht von vor 29 Minuten, um 10:55 UTC
Wind 30 kt aus Südwest, Böen bis zu 36 kt
Temperatur 13°C
Luftfeuchtigkeit 88%
Luftdruck 996 hPa
Sichtweite 10 km oder mehr

METAR: EHSC 231055Z AUTO 23030G36KT 9999 ///////// 13/11 Q0996 W12/H21

Zeit: 12:24 (11:24 UTC)


TAF: fehlend

Wetterbeobachtungen und Prognosen von mehr als 4000 Flughäfen (METAR und TAF Bericht).

Die verfügbaren Stationen werden durch gelbe und rote Markierungen auf der Karte dargestellt.

Führen Sie die Maus auf sie, um den Namen der Station zu sehen.

Darauf klicken, um die Beobachtung von Wetterbeobachtungen und Prognosen zu sehen.

Um die Karte zu ändern : klicken Sie auf den grünen Tasten mit einem schwarzen Kreuz Zum Vergrößern, auf den grünen Button mit einem Gedankenstrich zu verkleinern, oder auf die grünen Pfeile für benachbarte Karten.


METAR-TAF: